createdAt,value
2017-10-23T01:36:46.548Z,1012.38
2017-10-23T01:36:47.124Z,1012.33
2017-10-23T01:36:47.722Z,1012.34
2017-10-23T01:36:48.323Z,1012.32
2017-10-23T01:36:48.923Z,1012.34
2017-10-23T01:36:49.523Z,1012.34
2017-10-23T01:36:50.122Z,1012.34
2017-10-23T01:36:50.722Z,1012.31
2017-10-23T01:37:45.225Z,1012.28
2017-10-23T01:37:45.799Z,1012.31
2017-10-23T01:37:46.400Z,1012.33
2017-10-23T01:37:46.999Z,1012.33
2017-10-23T01:37:47.599Z,1012.33
2017-10-23T01:37:48.199Z,1012.34
2017-10-23T01:37:48.799Z,1012.36
2017-10-23T01:37:49.398Z,1012.36
2017-10-23T01:38:42.881Z,1012.29
2017-10-23T01:38:43.452Z,1012.27
2017-10-23T01:38:44.053Z,1012.29
2017-10-23T01:38:44.652Z,1012.26
2017-10-23T01:38:45.252Z,1012.26
2017-10-23T01:38:45.852Z,1012.30
2017-10-23T01:38:46.452Z,1012.27
2017-10-23T01:38:47.052Z,1012.32
2017-10-23T01:39:41.553Z,1012.32
2017-10-23T01:39:42.130Z,1012.27
2017-10-23T01:39:42.727Z,1012.29
2017-10-23T01:39:43.328Z,1012.32
2017-10-23T01:39:43.926Z,1012.29
2017-10-23T01:39:44.527Z,1012.28
2017-10-23T01:39:45.126Z,1012.31
2017-10-23T01:39:45.726Z,1012.31
2017-10-23T01:40:40.230Z,1012.31
2017-10-23T01:40:40.804Z,1012.26
2017-10-23T01:40:41.403Z,1012.23
2017-10-23T01:40:42.005Z,1012.31
2017-10-23T01:40:42.604Z,1012.29
2017-10-23T01:40:43.203Z,1012.29
2017-10-23T01:40:43.804Z,1012.28
2017-10-23T01:40:44.404Z,1012.27
2017-10-23T01:41:37.883Z,1012.24
2017-10-23T01:41:38.456Z,1012.27
2017-10-23T01:41:39.057Z,1012.26
2017-10-23T01:41:39.657Z,1012.23
2017-10-23T01:41:40.260Z,1012.30
2017-10-23T01:41:40.853Z,1012.28
2017-10-23T01:41:41.463Z,1012.28
2017-10-23T01:41:42.055Z,1012.28
2017-10-23T01:42:36.557Z,1012.33
2017-10-23T01:42:37.132Z,1012.31
2017-10-23T01:42:37.731Z,1012.33
2017-10-23T01:42:38.332Z,1012.29
2017-10-23T01:42:38.932Z,1012.30
2017-10-23T01:42:39.531Z,1012.31
2017-10-23T01:42:40.131Z,1012.30
2017-10-23T01:42:40.732Z,1012.29
2017-10-23T01:43:34.214Z,1012.31
2017-10-23T01:43:34.786Z,1012.30
2017-10-23T01:43:35.384Z,1012.30
2017-10-23T01:43:35.984Z,1012.28
2017-10-23T01:43:36.585Z,1012.29
2017-10-23T01:43:37.184Z,1012.28
2017-10-23T01:43:37.785Z,1012.30
2017-10-23T01:43:38.390Z,1012.29
2017-10-23T01:44:32.886Z,1012.32
2017-10-23T01:44:33.459Z,1012.33
2017-10-23T01:44:34.065Z,1012.33
2017-10-23T01:44:34.661Z,1012.27
2017-10-23T01:44:35.260Z,1012.29
2017-10-23T01:44:35.861Z,1012.28
2017-10-23T01:44:36.461Z,1012.29
2017-10-23T01:44:37.059Z,1012.30
2017-10-23T01:45:30.537Z,1012.30
2017-10-23T01:45:31.115Z,1012.31
2017-10-23T01:45:31.712Z,1012.30
2017-10-23T01:45:32.313Z,1012.28
2017-10-23T01:45:32.914Z,1012.28
2017-10-23T01:45:33.516Z,1012.30
2017-10-23T01:45:34.112Z,1012.28
2017-10-23T01:45:34.711Z,1012.26
2017-10-23T01:46:28.191Z,1012.26
2017-10-23T01:46:28.767Z,1012.26
2017-10-23T01:46:29.366Z,1012.28
2017-10-23T01:46:29.968Z,1012.28
2017-10-23T01:46:30.566Z,1012.25
2017-10-23T01:46:31.164Z,1012.25
2017-10-23T01:46:31.765Z,1012.26
2017-10-23T01:46:32.365Z,1012.25
2017-10-23T01:47:25.841Z,1012.34
2017-10-23T01:47:26.417Z,1012.33
2017-10-23T01:47:27.018Z,1012.34
2017-10-23T01:47:27.616Z,1012.31
2017-10-23T01:47:28.222Z,1012.25
2017-10-23T01:47:28.816Z,1012.30
2017-10-23T01:47:29.416Z,1012.31
2017-10-23T01:47:30.017Z,1012.31
2017-10-23T01:48:23.495Z,1012.30
2017-10-23T01:48:24.069Z,1012.29
2017-10-23T01:48:24.667Z,1012.28
2017-10-23T01:48:25.268Z,1012.27
2017-10-23T01:48:25.868Z,1012.30
2017-10-23T01:48:26.467Z,1012.32
2017-10-23T01:48:27.071Z,1012.28
2017-10-23T01:48:27.666Z,1012.28
2017-10-23T01:49:21.145Z,1012.22
2017-10-23T01:49:21.719Z,1012.23
2017-10-23T01:49:22.320Z,1012.22
2017-10-23T01:49:22.918Z,1012.22
2017-10-23T01:49:23.519Z,1012.22
2017-10-23T01:49:24.121Z,1012.22
2017-10-23T01:49:24.725Z,1012.24
2017-10-23T01:49:25.320Z,1012.23
2017-10-23T01:50:31.506Z,1012.29
2017-10-23T01:50:32.070Z,1012.26
2017-10-23T01:50:32.668Z,1012.27
2017-10-23T01:50:33.267Z,1012.29
2017-10-23T01:50:33.867Z,1012.28
2017-10-23T01:50:34.468Z,1012.31
2017-10-23T01:50:35.066Z,1012.25
2017-10-23T01:50:35.667Z,1012.28
2017-10-23T01:51:29.147Z,1012.28
2017-10-23T01:51:29.721Z,1012.27
2017-10-23T01:51:30.320Z,1012.29
2017-10-23T01:51:30.921Z,1012.28
2017-10-23T01:51:31.520Z,1012.29
2017-10-23T01:51:32.119Z,1012.29
2017-10-23T01:51:32.721Z,1012.28
2017-10-23T01:51:33.324Z,1012.27
2017-10-23T01:52:26.799Z,1012.30
2017-10-23T01:52:27.373Z,1012.29
2017-10-23T01:52:27.974Z,1012.31
2017-10-23T01:52:28.572Z,1012.32
2017-10-23T01:52:29.180Z,1012.27
2017-10-23T01:52:29.773Z,1012.28
2017-10-23T01:52:30.378Z,1012.29
2017-10-23T01:52:30.978Z,1012.29
2017-10-23T01:53:24.450Z,1012.27
2017-10-23T01:53:25.025Z,1012.26
2017-10-23T01:53:25.625Z,1012.26
2017-10-23T01:53:26.225Z,1012.24
2017-10-23T01:53:26.824Z,1012.26
2017-10-23T01:53:27.427Z,1012.26
2017-10-23T01:53:28.028Z,1012.24
2017-10-23T01:53:28.624Z,1012.25
2017-10-23T01:54:23.126Z,1012.27
2017-10-23T01:54:23.699Z,1012.30
2017-10-23T01:54:24.298Z,1012.29
2017-10-23T01:54:24.898Z,1012.27
2017-10-23T01:54:25.498Z,1012.25
2017-10-23T01:54:26.097Z,1012.27
2017-10-23T01:54:26.698Z,1012.24
2017-10-23T01:54:27.299Z,1012.27
2017-10-23T01:55:21.802Z,1012.27
2017-10-23T01:55:22.378Z,1012.24
2017-10-23T01:55:22.985Z,1012.25
2017-10-23T01:55:23.575Z,1012.24
2017-10-23T01:55:24.174Z,1012.27
2017-10-23T01:55:24.775Z,1012.23
2017-10-23T01:55:25.374Z,1012.25
2017-10-23T01:55:25.975Z,1012.26
2017-10-23T01:56:20.477Z,1012.30
2017-10-23T01:56:21.051Z,1012.27
2017-10-23T01:56:21.651Z,1012.27
2017-10-23T01:56:22.251Z,1012.27
2017-10-23T01:56:22.851Z,1012.23
2017-10-23T01:56:23.450Z,1012.29
2017-10-23T01:56:24.051Z,1012.29
2017-10-23T01:56:24.655Z,1012.29
2017-10-23T01:57:18.128Z,1012.29
2017-10-23T01:57:18.703Z,1012.24
2017-10-23T01:57:19.303Z,1012.24
2017-10-23T01:57:19.903Z,1012.28
2017-10-23T01:57:20.502Z,1012.25
2017-10-23T01:57:21.103Z,1012.27
2017-10-23T01:57:21.702Z,1012.25
2017-10-23T01:57:22.302Z,1012.26
2017-10-23T01:58:15.781Z,1012.29
2017-10-23T01:58:16.356Z,1012.34
2017-10-23T01:58:16.958Z,1012.28
2017-10-23T01:58:17.554Z,1012.29
2017-10-23T01:58:18.155Z,1012.28
2017-10-23T01:58:18.755Z,1012.24
2017-10-23T01:58:19.354Z,1012.30
2017-10-23T01:58:19.959Z,1012.29
2017-10-23T01:59:14.457Z,1012.27
2017-10-23T01:59:15.030Z,1012.27
2017-10-23T01:59:15.631Z,1012.25
2017-10-23T01:59:16.231Z,1012.27
2017-10-23T01:59:16.830Z,1012.26
2017-10-23T01:59:17.431Z,1012.26
2017-10-23T01:59:18.030Z,1012.25
2017-10-23T01:59:18.629Z,1012.26
2017-10-23T02:00:12.109Z,1012.28
2017-10-23T02:00:12.683Z,1012.29
2017-10-23T02:00:13.283Z,1012.33
2017-10-23T02:00:13.883Z,1012.28
2017-10-23T02:00:14.483Z,1012.31
2017-10-23T02:00:15.082Z,1012.30
2017-10-23T02:00:15.685Z,1012.27
2017-10-23T02:00:16.281Z,1012.27
2017-10-23T02:01:10.785Z,1012.29
2017-10-23T02:01:11.359Z,1012.28
2017-10-23T02:01:11.958Z,1012.27
2017-10-23T02:01:12.560Z,1012.28
2017-10-23T02:01:13.158Z,1012.30
2017-10-23T02:01:13.757Z,1012.28
2017-10-23T02:01:14.357Z,1012.28
2017-10-23T02:01:14.958Z,1012.30
2017-10-23T02:02:08.437Z,1012.28
2017-10-23T02:02:09.010Z,1012.28
2017-10-23T02:02:09.610Z,1012.24
2017-10-23T02:02:10.210Z,1012.27
2017-10-23T02:02:10.811Z,1012.30
2017-10-23T02:02:11.410Z,1012.31
2017-10-23T02:02:12.009Z,1012.29
2017-10-23T02:02:12.609Z,1012.28
2017-10-23T02:03:07.114Z,1012.28
2017-10-23T02:03:07.687Z,1012.28
2017-10-23T02:03:08.301Z,1012.28
2017-10-23T02:03:08.884Z,1012.28
2017-10-23T02:03:09.484Z,1012.32
2017-10-23T02:03:10.085Z,1012.30
2017-10-23T02:03:10.685Z,1012.31
2017-10-23T02:03:11.289Z,1012.30
2017-10-23T02:04:05.788Z,1012.32
2017-10-23T02:04:06.362Z,1012.29
2017-10-23T02:04:06.961Z,1012.30
2017-10-23T02:04:07.561Z,1012.26
2017-10-23T02:04:08.163Z,1012.27
2017-10-23T02:04:08.761Z,1012.27
2017-10-23T02:04:09.359Z,1012.29
2017-10-23T02:04:09.966Z,1012.26
2017-10-23T02:05:04.466Z,1012.30
2017-10-23T02:05:05.036Z,1012.28
2017-10-23T02:05:05.636Z,1012.26
2017-10-23T02:05:06.236Z,1012.27
2017-10-23T02:05:06.837Z,1012.24
2017-10-23T02:05:07.436Z,1012.24
2017-10-23T02:05:08.037Z,1012.27
2017-10-23T02:05:08.635Z,1012.27
2017-10-23T02:06:02.114Z,1012.27
2017-10-23T02:06:02.689Z,1012.28
2017-10-23T02:06:03.289Z,1012.28
2017-10-23T02:06:03.889Z,1012.26
2017-10-23T02:06:04.488Z,1012.30
2017-10-23T02:06:05.089Z,1012.28
2017-10-23T02:06:05.689Z,1012.26
2017-10-23T02:06:06.288Z,1012.29
2017-10-23T02:06:59.765Z,1012.30
2017-10-23T02:07:00.345Z,1012.31
2017-10-23T02:07:00.946Z,1012.30
2017-10-23T02:07:01.545Z,1012.25
2017-10-23T02:07:02.141Z,1012.28
2017-10-23T02:07:02.740Z,1012.31
2017-10-23T02:07:03.339Z,1012.30
2017-10-23T02:07:03.939Z,1012.27
2017-10-23T02:07:58.443Z,1012.32
2017-10-23T02:07:59.015Z,1012.30
2017-10-23T02:07:59.617Z,1012.34
2017-10-23T02:08:00.215Z,1012.30
2017-10-23T02:08:00.815Z,1012.30
2017-10-23T02:08:01.416Z,1012.34
2017-10-23T02:08:02.015Z,1012.30
2017-10-23T02:08:02.614Z,1012.28
2017-10-23T02:08:57.118Z,1012.33
2017-10-23T02:08:57.691Z,1012.31
2017-10-23T02:08:58.301Z,1012.28
2017-10-23T02:08:58.891Z,1012.29
2017-10-23T02:08:59.491Z,1012.31
2017-10-23T02:09:00.090Z,1012.33
2017-10-23T02:09:00.690Z,1012.31
2017-10-23T02:09:01.290Z,1012.31
2017-10-23T02:09:54.774Z,1012.29
2017-10-23T02:09:55.343Z,1012.33
2017-10-23T02:09:55.943Z,1012.33
2017-10-23T02:09:56.549Z,1012.34
2017-10-23T02:09:57.143Z,1012.34
2017-10-23T02:09:57.743Z,1012.34
2017-10-23T02:09:58.345Z,1012.35
2017-10-23T02:09:58.944Z,1012.36
2017-10-23T02:10:52.419Z,1012.32
2017-10-23T02:10:52.996Z,1012.32
2017-10-23T02:10:53.596Z,1012.31
2017-10-23T02:10:54.196Z,1012.31
2017-10-23T02:10:54.795Z,1012.35
2017-10-23T02:10:55.394Z,1012.31
2017-10-23T02:10:55.994Z,1012.33
2017-10-23T02:10:56.595Z,1012.35
2017-10-23T02:11:51.097Z,1012.31
2017-10-23T02:11:51.670Z,1012.29
2017-10-23T02:11:52.271Z,1012.32
2017-10-23T02:11:52.870Z,1012.35
2017-10-23T02:11:53.472Z,1012.30
2017-10-23T02:11:54.069Z,1012.32
2017-10-23T02:11:54.670Z,1012.31
2017-10-23T02:11:55.269Z,1012.29
2017-10-23T02:12:49.773Z,1012.33
2017-10-23T02:12:50.345Z,1012.33
2017-10-23T02:12:50.945Z,1012.36
2017-10-23T02:12:51.546Z,1012.27
2017-10-23T02:12:52.151Z,1012.29
2017-10-23T02:12:52.746Z,1012.33
2017-10-23T02:12:53.346Z,1012.32
2017-10-23T02:12:53.944Z,1012.32
2017-10-23T02:13:47.422Z,1012.30
2017-10-23T02:13:47.998Z,1012.30
2017-10-23T02:13:48.599Z,1012.31
2017-10-23T02:13:49.198Z,1012.25
2017-10-23T02:13:49.799Z,1012.30
2017-10-23T02:13:50.400Z,1012.27
2017-10-23T02:13:50.997Z,1012.33
2017-10-23T02:13:51.597Z,1012.30
2017-10-23T02:14:45.079Z,1012.33
2017-10-23T02:14:45.649Z,1012.29
2017-10-23T02:14:46.252Z,1012.29
2017-10-23T02:14:46.849Z,1012.31
2017-10-23T02:14:47.450Z,1012.31
2017-10-23T02:14:48.048Z,1012.35
2017-10-23T02:14:48.649Z,1012.31
2017-10-23T02:14:49.262Z,1012.30
2017-10-23T02:15:43.752Z,1012.26
2017-10-23T02:15:44.324Z,1012.27
2017-10-23T02:15:44.925Z,1012.27
2017-10-23T02:15:45.524Z,1012.29
2017-10-23T02:15:46.122Z,1012.27
2017-10-23T02:15:46.723Z,1012.28
2017-10-23T02:15:47.323Z,1012.26
2017-10-23T02:15:47.923Z,1012.25
2017-10-23T02:16:42.426Z,1012.26
2017-10-23T02:16:43.003Z,1012.25
2017-10-23T02:16:43.599Z,1012.27
2017-10-23T02:16:44.199Z,1012.21
2017-10-23T02:16:44.800Z,1012.26
2017-10-23T02:16:45.405Z,1012.27
2017-10-23T02:16:46.007Z,1012.26
2017-10-23T02:16:46.599Z,1012.28
2017-10-23T02:17:40.077Z,1012.28
2017-10-23T02:17:40.653Z,1012.25
2017-10-23T02:17:41.253Z,1012.24
2017-10-23T02:17:41.853Z,1012.25
2017-10-23T02:17:42.453Z,1012.25
2017-10-23T02:17:43.055Z,1012.25
2017-10-23T02:17:43.652Z,1012.27
2017-10-23T02:17:44.253Z,1012.23
2017-10-23T02:18:37.730Z,1012.30
2017-10-23T02:18:38.309Z,1012.30
2017-10-23T02:18:38.906Z,1012.29
2017-10-23T02:18:39.504Z,1012.28
2017-10-23T02:18:40.105Z,1012.29
2017-10-23T02:18:40.707Z,1012.29
2017-10-23T02:18:41.306Z,1012.29
2017-10-23T02:18:41.905Z,1012.28
2017-10-23T02:19:36.407Z,1012.26
2017-10-23T02:19:36.979Z,1012.27
2017-10-23T02:19:37.579Z,1012.28
2017-10-23T02:19:38.179Z,1012.28
2017-10-23T02:19:38.780Z,1012.25
2017-10-23T02:19:39.379Z,1012.27
2017-10-23T02:19:39.979Z,1012.28
2017-10-23T02:19:40.581Z,1012.28
2017-10-23T02:20:35.083Z,1012.27
2017-10-23T02:20:35.656Z,1012.28
2017-10-23T02:20:36.256Z,1012.29
2017-10-23T02:20:36.855Z,1012.26
2017-10-23T02:20:37.455Z,1012.27
2017-10-23T02:20:38.055Z,1012.28
2017-10-23T02:20:38.654Z,1012.29
2017-10-23T02:20:39.256Z,1012.27
2017-10-23T02:21:33.757Z,1012.25
2017-10-23T02:21:34.331Z,1012.26
2017-10-23T02:21:34.931Z,1012.26
2017-10-23T02:21:35.531Z,1012.24
2017-10-23T02:21:36.130Z,1012.27
2017-10-23T02:21:36.729Z,1012.28
2017-10-23T02:21:37.331Z,1012.27
2017-10-23T02:21:37.930Z,1012.28
2017-10-23T02:22:32.434Z,1012.30
2017-10-23T02:22:33.005Z,1012.28
2017-10-23T02:22:33.605Z,1012.29
2017-10-23T02:22:34.206Z,1012.28
2017-10-23T02:22:34.812Z,1012.30
2017-10-23T02:22:35.405Z,1012.30
2017-10-23T02:22:36.005Z,1012.29
2017-10-23T02:22:36.605Z,1012.26
2017-10-23T02:23:30.084Z,1012.32
2017-10-23T02:23:30.659Z,1012.32
2017-10-23T02:23:31.259Z,1012.33
2017-10-23T02:23:31.859Z,1012.29
2017-10-23T02:23:32.463Z,1012.30
2017-10-23T02:23:33.064Z,1012.30
2017-10-23T02:23:33.658Z,1012.28
2017-10-23T02:23:34.258Z,1012.27
2017-10-23T02:24:27.735Z,1012.31
2017-10-23T02:24:28.311Z,1012.31
2017-10-23T02:24:28.918Z,1012.31
2017-10-23T02:24:29.529Z,1012.32
2017-10-23T02:24:30.109Z,1012.35
2017-10-23T02:24:30.709Z,1012.32
2017-10-23T02:24:31.308Z,1012.30
2017-10-23T02:24:31.912Z,1012.31
2017-10-23T02:25:25.386Z,1012.32
2017-10-23T02:25:25.962Z,1012.34
2017-10-23T02:25:26.561Z,1012.33
2017-10-23T02:25:27.161Z,1012.34
2017-10-23T02:25:27.762Z,1012.32
2017-10-23T02:25:28.366Z,1012.34
2017-10-23T02:25:28.962Z,1012.34
2017-10-23T02:25:29.562Z,1012.33
2017-10-23T02:26:24.064Z,1012.35
2017-10-23T02:26:24.637Z,1012.34
2017-10-23T02:26:25.237Z,1012.36
2017-10-23T02:26:25.835Z,1012.37
2017-10-23T02:26:26.436Z,1012.36
2017-10-23T02:26:27.039Z,1012.34
2017-10-23T02:26:27.636Z,1012.37
2017-10-23T02:26:28.236Z,1012.39
2017-10-23T02:27:21.714Z,1012.38
2017-10-23T02:27:22.289Z,1012.35
2017-10-23T02:27:22.891Z,1012.37
2017-10-23T02:27:23.489Z,1012.38
2017-10-23T02:27:24.089Z,1012.36
2017-10-23T02:27:24.689Z,1012.35
2017-10-23T02:27:25.288Z,1012.35
2017-10-23T02:27:25.912Z,1012.35
2017-10-23T02:28:19.370Z,1012.35
2017-10-23T02:28:19.940Z,1012.39
2017-10-23T02:28:20.541Z,1012.38
2017-10-23T02:28:21.160Z,1012.39
2017-10-23T02:28:21.740Z,1012.39
2017-10-23T02:28:22.342Z,1012.39
2017-10-23T02:28:22.941Z,1012.39
2017-10-23T02:28:23.540Z,1012.39
2017-10-23T02:29:18.043Z,1012.40
2017-10-23T02:29:18.615Z,1012.40
2017-10-23T02:29:19.216Z,1012.41
2017-10-23T02:29:19.820Z,1012.36
2017-10-23T02:29:20.417Z,1012.37
2017-10-23T02:29:21.015Z,1012.43
2017-10-23T02:29:21.614Z,1012.41
2017-10-23T02:29:22.213Z,1012.39
2017-10-23T02:30:15.693Z,1012.43
2017-10-23T02:30:16.287Z,1012.40
2017-10-23T02:30:16.868Z,1012.42
2017-10-23T02:30:17.468Z,1012.41
2017-10-23T02:30:18.069Z,1012.42
2017-10-23T02:30:18.674Z,1012.43
2017-10-23T02:30:19.268Z,1012.43
2017-10-23T02:30:19.868Z,1012.41
2017-10-23T02:31:13.346Z,1012.44
2017-10-23T02:31:13.921Z,1012.43
2017-10-23T02:31:14.523Z,1012.44
2017-10-23T02:31:15.126Z,1012.40
2017-10-23T02:31:15.719Z,1012.41
2017-10-23T02:31:16.319Z,1012.42
2017-10-23T02:31:16.920Z,1012.44
2017-10-23T02:31:17.519Z,1012.43
2017-10-23T02:32:10.998Z,1012.40
2017-10-23T02:32:11.571Z,1012.41
2017-10-23T02:32:12.171Z,1012.42
2017-10-23T02:32:12.771Z,1012.43
2017-10-23T02:32:13.370Z,1012.41
2017-10-23T02:32:13.971Z,1012.43
2017-10-23T02:32:14.571Z,1012.47
2017-10-23T02:32:15.176Z,1012.44
2017-10-23T02:33:09.673Z,1012.43
2017-10-23T02:33:10.247Z,1012.41
2017-10-23T02:33:10.846Z,1012.39
2017-10-23T02:33:11.452Z,1012.41
2017-10-23T02:33:12.045Z,1012.45
2017-10-23T02:33:12.644Z,1012.44
2017-10-23T02:33:13.251Z,1012.43
2017-10-23T02:33:13.844Z,1012.44
2017-10-23T02:52:31.924Z,1012.49
2017-10-23T02:52:32.491Z,1012.49
2017-10-23T02:52:33.090Z,1012.47
2017-10-23T02:52:33.691Z,1012.49
2017-10-23T02:52:34.291Z,1012.49
2017-10-23T02:52:34.891Z,1012.51
2017-10-23T02:52:35.490Z,1012.49
2017-10-23T02:52:36.089Z,1012.51
2017-10-23T02:53:29.570Z,1012.47
2017-10-23T02:53:30.143Z,1012.49
2017-10-23T02:53:30.742Z,1012.47
2017-10-23T02:53:31.342Z,1012.46
2017-10-23T02:53:31.943Z,1012.48
2017-10-23T02:53:32.542Z,1012.50
2017-10-23T02:53:33.143Z,1012.48
2017-10-23T02:53:33.743Z,1012.49
2017-10-23T02:54:27.220Z,1012.44
2017-10-23T02:54:27.794Z,1012.47
2017-10-23T02:54:28.395Z,1012.42
2017-10-23T02:54:29.002Z,1012.44
2017-10-23T02:54:29.596Z,1012.43
2017-10-23T02:54:30.194Z,1012.49
2017-10-23T02:54:30.795Z,1012.48
2017-10-23T02:54:31.395Z,1012.46
2017-10-23T02:55:24.873Z,1012.49
2017-10-23T02:55:25.447Z,1012.52
2017-10-23T02:55:26.047Z,1012.50
2017-10-23T02:55:26.648Z,1012.48
2017-10-23T02:55:27.247Z,1012.50
2017-10-23T02:55:27.846Z,1012.49
2017-10-23T02:55:28.452Z,1012.49
2017-10-23T02:55:29.056Z,1012.50
2017-10-23T02:56:23.549Z,1012.43
2017-10-23T02:56:24.122Z,1012.45
2017-10-23T02:56:24.722Z,1012.46
2017-10-23T02:56:25.323Z,1012.45
2017-10-23T02:56:25.923Z,1012.45
2017-10-23T02:56:26.521Z,1012.47
2017-10-23T02:56:27.122Z,1012.47
2017-10-23T02:56:27.722Z,1012.49
2017-10-23T02:57:22.225Z,1012.49
2017-10-23T02:57:22.799Z,1012.47
2017-10-23T02:57:23.403Z,1012.48
2017-10-23T02:57:24.000Z,1012.47
2017-10-23T02:57:24.600Z,1012.48
2017-10-23T02:57:25.200Z,1012.48
2017-10-23T02:57:25.798Z,1012.47
2017-10-23T02:57:26.399Z,1012.47
2017-10-23T02:58:20.899Z,1012.51
2017-10-23T02:58:21.475Z,1012.51
2017-10-23T02:58:22.076Z,1012.50
2017-10-23T02:58:22.675Z,1012.51
2017-10-23T02:58:23.276Z,1012.52
2017-10-23T02:58:23.876Z,1012.55
2017-10-23T02:58:24.475Z,1012.53
2017-10-23T02:58:25.074Z,1012.55
2017-10-23T02:59:19.577Z,1012.50
2017-10-23T02:59:20.150Z,1012.54
2017-10-23T02:59:20.751Z,1012.53
2017-10-23T02:59:21.350Z,1012.53
2017-10-23T02:59:21.949Z,1012.54
2017-10-23T02:59:22.550Z,1012.51
2017-10-23T02:59:23.150Z,1012.54
2017-10-23T02:59:23.749Z,1012.49
2017-10-23T03:00:18.255Z,1012.51
2017-10-23T03:00:18.826Z,1012.55
2017-10-23T03:00:19.427Z,1012.46
2017-10-23T03:00:20.026Z,1012.52
2017-10-23T03:00:20.626Z,1012.58
2017-10-23T03:00:21.226Z,1012.54
2017-10-23T03:00:21.825Z,1012.53
2017-10-23T03:00:22.426Z,1012.52
2017-10-23T03:01:16.929Z,1012.58
2017-10-23T03:01:17.504Z,1012.55
2017-10-23T03:01:18.103Z,1012.57
2017-10-23T03:01:18.704Z,1012.56
2017-10-23T03:01:19.309Z,1012.58
2017-10-23T03:01:19.901Z,1012.60
2017-10-23T03:01:20.502Z,1012.58
2017-10-23T03:01:21.101Z,1012.59
2017-10-23T03:02:14.586Z,1012.56
2017-10-23T03:02:15.157Z,1012.56
2017-10-23T03:02:15.756Z,1012.53
2017-10-23T03:02:16.355Z,1012.55
2017-10-23T03:02:16.959Z,1012.54
2017-10-23T03:02:17.555Z,1012.55
2017-10-23T03:02:18.153Z,1012.54
2017-10-23T03:02:18.755Z,1012.56
2017-10-23T03:03:12.235Z,1012.54
2017-10-23T03:03:12.809Z,1012.58
2017-10-23T03:03:13.407Z,1012.53
2017-10-23T03:03:14.007Z,1012.56
2017-10-23T03:03:14.606Z,1012.57
2017-10-23T03:03:15.206Z,1012.55
2017-10-23T03:03:15.808Z,1012.58
2017-10-23T03:03:16.407Z,1012.55
2017-10-23T03:04:09.882Z,1012.61
2017-10-23T03:04:10.458Z,1012.60
2017-10-23T03:04:11.058Z,1012.61
2017-10-23T03:04:11.658Z,1012.60
2017-10-23T03:04:12.259Z,1012.62
2017-10-23T03:04:12.858Z,1012.63
2017-10-23T03:04:13.459Z,1012.59
2017-10-23T03:04:14.058Z,1012.58
2017-10-23T03:05:08.560Z,1012.59
2017-10-23T03:05:09.134Z,1012.59
2017-10-23T03:05:09.733Z,1012.62
2017-10-23T03:05:10.334Z,1012.58
2017-10-23T03:05:10.935Z,1012.64
2017-10-23T03:05:11.533Z,1012.61
2017-10-23T03:05:12.133Z,1012.61
2017-10-23T03:05:12.732Z,1012.59
2017-10-23T03:06:07.236Z,1012.58
2017-10-23T03:06:07.810Z,1012.56
2017-10-23T03:06:08.409Z,1012.58
2017-10-23T03:06:09.009Z,1012.58
2017-10-23T03:06:09.612Z,1012.58
2017-10-23T03:06:10.218Z,1012.58
2017-10-23T03:06:10.807Z,1012.58
2017-10-23T03:06:11.407Z,1012.60
2017-10-23T03:07:04.886Z,1012.58
2017-10-23T03:07:05.462Z,1012.58
2017-10-23T03:07:06.062Z,1012.57
2017-10-23T03:07:06.660Z,1012.58
2017-10-23T03:07:07.262Z,1012.61
2017-10-23T03:07:07.861Z,1012.58
2017-10-23T03:07:08.462Z,1012.60
2017-10-23T03:07:09.061Z,1012.61
2017-10-23T03:08:03.565Z,1012.60
2017-10-23T03:08:04.137Z,1012.61
2017-10-23T03:08:04.738Z,1012.59
2017-10-23T03:08:05.337Z,1012.59
2017-10-23T03:08:05.937Z,1012.56
2017-10-23T03:08:06.537Z,1012.58
2017-10-23T03:08:07.140Z,1012.60
2017-10-23T03:08:07.737Z,1012.59
2017-10-23T03:09:02.240Z,1012.65
2017-10-23T03:09:02.813Z,1012.59
2017-10-23T03:09:03.412Z,1012.59
2017-10-23T03:09:04.012Z,1012.61
2017-10-23T03:09:04.612Z,1012.63
2017-10-23T03:09:05.213Z,1012.60
2017-10-23T03:09:05.812Z,1012.60
2017-10-23T03:09:06.411Z,1012.57
2017-10-23T03:09:59.889Z,1012.58
2017-10-23T03:10:00.465Z,1012.60
2017-10-23T03:10:01.063Z,1012.57
2017-10-23T03:10:01.664Z,1012.54
2017-10-23T03:10:02.266Z,1012.58
2017-10-23T03:10:02.865Z,1012.62
2017-10-23T03:10:03.465Z,1012.53
2017-10-23T03:10:04.065Z,1012.58
2017-10-23T03:10:58.567Z,1012.59
2017-10-23T03:10:59.140Z,1012.57
2017-10-23T03:10:59.741Z,1012.57
2017-10-23T03:11:00.340Z,1012.55
2017-10-23T03:11:00.940Z,1012.56
2017-10-23T03:11:01.540Z,1012.54
2017-10-23T03:11:02.141Z,1012.57
2017-10-23T03:11:02.739Z,1012.55
2017-10-23T03:11:56.219Z,1012.56
2017-10-23T03:11:56.792Z,1012.57
2017-10-23T03:11:57.396Z,1012.59
2017-10-23T03:11:57.992Z,1012.57
2017-10-23T03:11:58.592Z,1012.54
2017-10-23T03:11:59.195Z,1012.55
2017-10-23T03:11:59.794Z,1012.58
2017-10-23T03:12:00.392Z,1012.57
2017-10-23T03:12:53.870Z,1012.55
2017-10-23T03:12:54.443Z,1012.57
2017-10-23T03:12:55.043Z,1012.57
2017-10-23T03:12:55.643Z,1012.57
2017-10-23T03:12:56.245Z,1012.59
2017-10-23T03:12:56.844Z,1012.57
2017-10-23T03:12:57.444Z,1012.58
2017-10-23T03:12:58.052Z,1012.56
2017-10-23T03:13:51.522Z,1012.59
2017-10-23T03:13:52.096Z,1012.61
2017-10-23T03:13:52.695Z,1012.58
2017-10-23T03:13:53.295Z,1012.60
2017-10-23T03:13:53.895Z,1012.57
2017-10-23T03:13:54.495Z,1012.61
2017-10-23T03:13:55.095Z,1012.59
2017-10-23T03:13:55.695Z,1012.63
2017-10-23T03:14:49.171Z,1012.56
2017-10-23T03:14:49.748Z,1012.55
2017-10-23T03:14:50.348Z,1012.57
2017-10-23T03:14:50.946Z,1012.58
2017-10-23T03:14:51.550Z,1012.61
2017-10-23T03:14:52.145Z,1012.58
2017-10-23T03:14:52.746Z,1012.59
2017-10-23T03:14:53.346Z,1012.57
2017-10-23T03:15:47.849Z,1012.59
2017-10-23T03:15:48.422Z,1012.60
2017-10-23T03:15:49.022Z,1012.59
2017-10-23T03:15:49.624Z,1012.59
2017-10-23T03:15:50.220Z,1012.60
2017-10-23T03:15:50.819Z,1012.60
2017-10-23T03:15:51.420Z,1012.57
2017-10-23T03:15:52.022Z,1012.58
2017-10-23T03:16:46.525Z,1012.61
2017-10-23T03:16:47.099Z,1012.60
2017-10-23T03:16:47.699Z,1012.57
2017-10-23T03:16:48.300Z,1012.61
2017-10-23T03:16:48.898Z,1012.61
2017-10-23T03:16:49.500Z,1012.62
2017-10-23T03:16:50.098Z,1012.60
2017-10-23T03:16:50.697Z,1012.60
2017-10-23T03:17:45.204Z,1012.58
2017-10-23T03:17:45.774Z,1012.60
2017-10-23T03:17:46.373Z,1012.62
2017-10-23T03:17:46.973Z,1012.58
2017-10-23T03:17:47.574Z,1012.57
2017-10-23T03:17:48.173Z,1012.61
2017-10-23T03:17:48.773Z,1012.57
2017-10-23T03:17:49.373Z,1012.57
2017-10-23T03:18:43.876Z,1012.58
2017-10-23T03:18:44.450Z,1012.58
2017-10-23T03:18:45.050Z,1012.57
2017-10-23T03:18:45.649Z,1012.58
2017-10-23T03:18:46.251Z,1012.59
2017-10-23T03:18:46.852Z,1012.58
2017-10-23T03:18:47.450Z,1012.58
2017-10-23T03:18:48.049Z,1012.59
2017-10-23T03:19:42.552Z,1012.57
2017-10-23T03:19:43.125Z,1012.59
2017-10-23T03:19:43.731Z,1012.60
2017-10-23T03:19:44.324Z,1012.59
2017-10-23T03:19:44.926Z,1012.62
2017-10-23T03:19:45.524Z,1012.60
2017-10-23T03:19:46.125Z,1012.59
2017-10-23T03:19:46.725Z,1012.62
2017-10-23T03:20:40.202Z,1012.58
2017-10-23T03:20:40.777Z,1012.58
2017-10-23T03:20:41.379Z,1012.57
2017-10-23T03:20:41.978Z,1012.59
2017-10-23T03:20:42.577Z,1012.57
2017-10-23T03:20:43.178Z,1012.60
2017-10-23T03:20:43.778Z,1012.58
2017-10-23T03:20:44.378Z,1012.57
2017-10-23T03:21:37.854Z,1012.62
2017-10-23T03:21:38.429Z,1012.57
2017-10-23T03:21:39.028Z,1012.62
2017-10-23T03:21:39.629Z,1012.61
2017-10-23T03:21:40.228Z,1012.61
2017-10-23T03:21:40.828Z,1012.61
2017-10-23T03:21:41.429Z,1012.61
2017-10-23T03:21:42.032Z,1012.63
2017-10-23T03:22:35.507Z,1012.61
2017-10-23T03:22:36.081Z,1012.62
2017-10-23T03:22:36.682Z,1012.60
2017-10-23T03:22:37.280Z,1012.61
2017-10-23T03:22:37.881Z,1012.60
2017-10-23T03:22:38.481Z,1012.61